Time;durP1;ratioP1;P1;durP2;ratioP2;P2;SDS_P1;SDS_P2;PMS_P1;PMS_P2;Temp;Humidity;BMP_temperature;BMP_pressure;BME280_temperature;BME280_humidity;BME280_pressure;Samples;Min_cycle;Max_cycle;Signal;HPM_P1;HPM_P2
2022/10/28 00:00:56;;;;;;;6.20;3.93;;;15.60;99.90;;;;;;5094573;28;20279;-57
2022/10/28 00:03:24;;;;;;;6.03;4.27;;;15.60;99.90;;;;;;5095194;28;20234;-55
2022/10/28 00:05:53;;;;;;;7.50;4.60;;;15.60;99.90;;;;;;5095268;28;20215;-57
2022/10/28 00:08:21;;;;;;;6.13;4.30;;;15.50;99.90;;;;;;5095216;28;20226;-56
2022/10/28 00:10:49;;;;;;;8.90;4.43;;;15.50;99.90;;;;;;5094988;28;20617;-56
2022/10/28 00:13:17;;;;;;;7.10;4.03;;;15.50;99.90;;;;;;5094804;28;20280;-56
2022/10/28 00:15:46;;;;;;;8.20;4.40;;;15.50;99.90;;;;;;5094797;28;20230;-57
2022/10/28 00:18:14;;;;;;;8.27;3.90;;;15.50;99.90;;;;;;5094920;28;20233;-56
2022/10/28 00:20:42;;;;;;;5.17;4.40;;;15.50;99.90;;;;;;5109604;28;20693;-57
2022/10/28 00:23:10;;;;;;;6.37;4.23;;;15.50;99.90;;;;;;5103085;28;20223;-57
2022/10/28 00:25:38;;;;;;;6.43;4.00;;;15.40;99.90;;;;;;5094680;28;20245;-57
2022/10/28 00:28:06;;;;;;;6.63;4.17;;;15.40;99.90;;;;;;5100561;28;20690;-57
2022/10/28 00:30:34;;;;;;;7.77;4.90;;;15.40;99.90;;;;;;5093873;28;20636;-55
2022/10/28 00:33:04;;;;;;;6.07;4.40;;;15.30;99.90;;;;;;5094734;28;20766;-55
2022/10/28 00:35:32;;;;;;;9.97;4.57;;;15.30;99.90;;;;;;5094430;28;20681;-56
2022/10/28 00:38:00;;;;;;;6.17;4.53;;;15.30;99.90;;;;;;5094153;28;20647;-56
2022/10/28 00:40:33;;;;;;;8.03;4.87;;;15.30;99.90;;;;;;5094329;28;20642;-56
2022/10/28 00:43:01;;;;;;;7.10;4.50;;;15.30;99.90;;;;;;5094460;28;20230;-57
2022/10/28 00:45:29;;;;;;;5.77;4.50;;;15.30;99.90;;;;;;5094277;28;20234;-56
2022/10/28 00:48:00;;;;;;;7.77;4.70;;;15.30;99.90;;;;;;5094417;28;20226;-57
2022/10/28 00:50:45;;;;;;;7.37;4.80;;;15.30;99.90;;;;;;5107065;28;20222;-57
2022/10/28 00:53:17;;;;;;;7.57;5.03;;;15.30;99.90;;;;;;5091651;28;20743;-57
2022/10/28 00:55:46;;;;;;;8.53;4.60;;;15.30;99.90;;;;;;5079096;28;20246;-57
2022/10/28 00:58:16;;;;;;;8.53;5.07;;;15.30;99.90;;;;;;5091364;28;20230;-56
2022/10/28 01:00:44;;;;;;;8.90;4.90;;;15.30;99.90;;;;;;5093418;28;20246;-57
2022/10/28 01:03:12;;;;;;;9.77;5.17;;;15.20;99.90;;;;;;5094078;28;20699;-57
2022/10/28 01:05:44;;;;;;;6.40;4.97;;;15.20;99.90;;;;;;5093893;28;20288;-57
2022/10/28 01:08:12;;;;;;;7.43;4.87;;;15.20;99.90;;;;;;5094084;28;20693;-56
2022/10/28 01:11:05;;;;;;;8.17;4.77;;;15.20;99.90;;;;;;5093461;28;20235;-57
2022/10/28 01:13:47;;;;;;;6.53;4.90;;;15.20;99.90;;;;;;5093753;28;20602;-57
2022/10/28 01:16:25;;;;;;;8.10;4.30;;;15.20;99.90;;;;;;5091868;28;20578;-57
2022/10/28 01:19:03;;;;;;;6.90;5.43;;;15.20;99.90;;;;;;5092880;28;20739;-56
2022/10/28 01:22:01;;;;;;;9.40;5.60;;;15.20;99.90;;;;;;5098419;28;20231;-56
2022/10/28 01:24:46;;;;;;;8.17;4.47;;;15.20;99.90;;;;;;5093241;28;20226;-56
2022/10/28 01:27:49;;;;;;;8.47;5.00;;;15.20;99.90;;;;;;5093547;28;20620;-57
2022/10/28 01:30:19;;;;;;;6.07;4.93;;;15.20;99.90;;;;;;5070439;28;20689;-57
2022/10/28 01:32:58;;;;;;;8.20;4.80;;;15.20;99.90;;;;;;5093448;28;20276;-56
2022/10/28 01:35:32;;;;;;;7.30;4.80;;;15.10;99.90;;;;;;5093096;28;20284;-56
2022/10/28 01:38:20;;;;;;;7.10;5.03;;;15.10;99.90;;;;;;5093195;28;20244;-56
2022/10/28 01:40:55;;;;;;;7.60;4.80;;;15.10;99.90;;;;;;5093180;28;20226;-57
2022/10/28 01:43:29;;;;;;;10.67;4.73;;;15.10;99.90;;;;;;5093423;28;20685;-56
2022/10/28 01:46:01;;;;;;;6.63;5.37;;;15.10;99.90;;;;;;5096904;28;20273;-57
2022/10/28 01:48:35;;;;;;;7.07;5.20;;;15.10;99.90;;;;;;5104585;28;20229;-57
2022/10/28 01:51:14;;;;;;;11.83;5.20;;;15.10;99.90;;;;;;5113626;28;20706;-56
2022/10/28 01:53:46;;;;;;;8.20;4.60;;;15.10;99.90;;;;;;5113101;28;20230;-55
2022/10/28 01:56:17;;;;;;;9.93;4.90;;;15.20;99.90;;;;;;5113247;28;20222;-56
2022/10/28 01:58:47;;;;;;;9.03;5.23;;;15.20;99.90;;;;;;5097563;28;20243;-56
2022/10/28 02:01:16;;;;;;;6.17;4.60;;;15.10;99.90;;;;;;5092389;28;20241;-56
2022/10/28 02:03:47;;;;;;;10.63;5.13;;;15.10;99.90;;;;;;5092626;28;20233;-56
2022/10/28 02:06:19;;;;;;;8.03;4.80;;;15.10;99.90;;;;;;5093074;28;20686;-57
2022/10/28 02:09:01;;;;;;;8.33;4.83;;;15.10;99.90;;;;;;5092913;28;20733;-55
2022/10/28 02:11:42;;;;;;;6.53;4.57;;;15.10;99.90;;;;;;5092750;28;20739;-56
2022/10/28 02:14:22;;;;;;;9.70;4.87;;;15.10;99.90;;;;;;5093107;28;20652;-56
2022/10/28 02:16:54;;;;;;;6.73;4.70;;;15.00;99.90;;;;;;5093525;28;20223;-56
2022/10/28 02:19:33;;;;;;;9.07;4.47;;;15.00;99.90;;;;;;5099474;28;20256;-55
2022/10/28 02:22:11;;;;;;;7.67;4.87;;;15.00;99.90;;;;;;5093013;28;20226;-57
2022/10/28 02:24:49;;;;;;;9.53;5.23;;;14.90;99.90;;;;;;5092779;28;20279;-57
2022/10/28 02:27:25;;;;;;;8.20;5.23;;;14.90;99.90;;;;;;5095846;28;20633;-57
2022/10/28 02:29:59;;;;;;;15.23;5.73;;;14.90;99.90;;;;;;5094845;28;20226;-56
2022/10/28 02:32:30;;;;;;;6.80;4.80;;;14.90;99.90;;;;;;5092247;28;20279;-56
2022/10/28 02:35:02;;;;;;;8.60;5.37;;;14.90;99.90;;;;;;5092600;28;20225;-56
2022/10/28 02:37:33;;;;;;;7.90;5.50;;;14.90;99.90;;;;;;5092189;28;20243;-56
2022/10/28 02:40:05;;;;;;;8.57;5.73;;;14.80;99.90;;;;;;5092748;28;20712;-56
2022/10/28 02:42:37;;;;;;;8.20;5.63;;;14.80;99.90;;;;;;5092382;28;20211;-56
2022/10/28 02:45:10;;;;;;;6.80;5.23;;;14.80;99.90;;;;;;5092727;28;20279;-57
2022/10/28 02:47:42;;;;;;;9.80;6.10;;;14.80;99.90;;;;;;5099137;28;20235;-57
2022/10/28 02:50:17;;;;;;;9.33;5.20;;;14.80;99.90;;;;;;5094029;28;20689;-57
2022/10/28 02:52:51;;;;;;;9.70;5.97;;;14.80;99.90;;;;;;5077473;28;20235;-57
2022/10/28 02:55:23;;;;;;;9.07;5.53;;;14.80;99.90;;;;;;5076343;28;20322;-55
2022/10/28 02:57:51;;;;;;;7.80;5.63;;;14.80;99.90;;;;;;5090294;28;20282;-57
2022/10/28 03:00:23;;;;;;;7.30;4.87;;;14.70;99.90;;;;;;5096064;28;20230;-56
2022/10/28 03:02:51;;;;;;;10.47;5.47;;;14.80;99.90;;;;;;5096269;28;20225;-56
2022/10/28 03:05:20;;;;;;;10.10;5.20;;;14.70;99.90;;;;;;5087996;28;20701;-57
2022/10/28 03:07:48;;;;;;;7.50;5.80;;;14.80;99.90;;;;;;5095881;28;20223;-56
2022/10/28 03:10:17;;;;;;;7.13;5.10;;;14.70;99.90;;;;;;5096054;28;20235;-57
2022/10/28 03:12:45;;;;;;;11.63;5.80;;;14.70;99.90;;;;;;5095742;28;20230;-57
2022/10/28 03:15:13;;;;;;;7.50;4.97;;;14.80;99.90;;;;;;5095993;28;20709;-57
2022/10/28 03:17:41;;;;;;;11.30;5.67;;;14.80;99.90;;;;;;5103794;28;20677;-56
2022/10/28 03:20:10;;;;;;;9.93;5.27;;;14.80;99.90;;;;;;5075896;28;20591;-56
2022/10/28 03:22:42;;;;;;;10.17;5.33;;;14.80;99.90;;;;;;5075663;28;20219;-57
2022/10/28 03:25:10;;;;;;;8.77;5.53;;;14.80;99.90;;;;;;5075518;28;20733;-57
2022/10/28 03:27:39;;;;;;;9.60;5.00;;;14.90;99.90;;;;;;5086847;28;20247;-57
2022/10/28 03:30:08;;;;;;;7.33;5.47;;;14.90;99.90;;;;;;5096161;28;20225;-56
2022/10/28 03:32:36;;;;;;;7.13;5.80;;;14.90;99.90;;;;;;5095433;28;20778;-56
2022/10/28 03:35:05;;;;;;;7.03;4.97;;;14.90;99.90;;;;;;5096170;28;20687;-57
2022/10/28 03:37:33;;;;;;;8.70;5.37;;;14.90;99.90;;;;;;5095389;28;20700;-57
2022/10/28 03:40:06;;;;;;;7.47;4.93;;;14.80;99.90;;;;;;5095771;28;20234;-57
2022/10/28 03:42:34;;;;;;;9.70;5.63;;;14.80;99.90;;;;;;5095234;28;20305;-56
2022/10/28 03:45:08;;;;;;;7.90;5.00;;;14.80;99.90;;;;;;5095371;28;20234;-57
2022/10/28 03:47:36;;;;;;;10.80;6.00;;;14.80;99.90;;;;;;5102726;28;20237;-56
2022/10/28 03:50:05;;;;;;;9.47;5.57;;;14.90;99.90;;;;;;5096144;28;20234;-57
2022/10/28 03:52:33;;;;;;;7.13;5.10;;;14.80;99.90;;;;;;5094946;28;20219;-57
2022/10/28 03:55:05;;;;;;;9.50;5.03;;;14.80;99.90;;;;;;5095273;28;20221;-56
2022/10/28 03:57:34;;;;;;;8.57;4.97;;;14.80;99.90;;;;;;5100139;28;20237;-56
2022/10/28 04:00:02;;;;;;;9.20;5.00;;;14.80;99.90;;;;;;5096120;28;20632;-56
2022/10/28 04:02:38;;;;;;;7.83;4.90;;;14.80;99.90;;;;;;5093664;28;20702;-57
2022/10/28 04:05:07;;;;;;;7.80;4.53;;;14.80;99.90;;;;;;5095030;28;20259;-57
2022/10/28 04:07:35;;;;;;;10.63;5.87;;;14.90;99.90;;;;;;5095108;28;20598;-57
2022/10/28 04:10:05;;;;;;;12.57;5.40;;;14.80;99.90;;;;;;5095240;28;20226;-56
2022/10/28 04:12:33;;;;;;;6.80;5.13;;;14.80;99.90;;;;;;5094970;28;20681;-57
2022/10/28 04:15:01;;;;;;;8.50;5.47;;;14.80;99.90;;;;;;5094799;28;20326;-56
2022/10/28 04:17:30;;;;;;;8.37;5.13;;;14.80;99.90;;;;;;5100735;28;20230;-56
2022/10/28 04:19:58;;;;;;;6.23;5.37;;;14.80;99.90;;;;;;5096440;28;20234;-57
2022/10/28 04:22:26;;;;;;;9.07;5.27;;;14.80;99.90;;;;;;5095075;28;20222;-56
2022/10/28 04:24:54;;;;;;;10.50;6.37;;;14.80;99.90;;;;;;5094936;28;20241;-57
2022/10/28 04:27:23;;;;;;;9.47;6.13;;;14.80;99.90;;;;;;5098234;28;20225;-57
2022/10/28 04:29:51;;;;;;;9.77;6.03;;;14.80;99.90;;;;;;5096823;28;20219;-57
2022/10/28 04:32:19;;;;;;;9.90;5.57;;;14.80;99.90;;;;;;5094325;28;20594;-57
2022/10/28 04:34:47;;;;;;;7.77;5.53;;;14.80;99.90;;;;;;5094542;28;20296;-56
2022/10/28 04:37:15;;;;;;;9.60;5.73;;;14.80;99.90;;;;;;5094446;28;20241;-57
2022/10/28 04:39:47;;;;;;;11.53;6.33;;;14.80;99.90;;;;;;5094872;28;20280;-57
2022/10/28 04:42:16;;;;;;;9.63;5.47;;;14.70;99.90;;;;;;5094510;28;20235;-56
2022/10/28 04:44:45;;;;;;;8.57;6.07;;;14.80;99.90;;;;;;5094336;28;20624;-56
2022/10/28 04:47:13;;;;;;;9.33;5.67;;;14.80;99.90;;;;;;5098103;28;20222;-57
2022/10/28 04:49:41;;;;;;;9.33;6.30;;;14.80;99.90;;;;;;5100480;28;20227;-57
2022/10/28 04:52:10;;;;;;;7.90;5.30;;;14.80;99.90;;;;;;5094017;28;20218;-56
2022/10/28 04:54:42;;;;;;;8.10;5.83;;;14.80;99.90;;;;;;5080069;28;20235;-56
2022/10/28 04:57:10;;;;;;;6.67;5.37;;;14.70;99.90;;;;;;5077912;28;20713;-57
2022/10/28 04:59:38;;;;;;;7.03;6.07;;;14.70;99.90;;;;;;5098093;28;20292;-57
2022/10/28 05:02:08;;;;;;;10.23;5.73;;;14.70;99.90;;;;;;5094808;28;20234;-56
2022/10/28 05:04:36;;;;;;;7.37;5.50;;;14.70;99.90;;;;;;5093669;28;20230;-56
2022/10/28 05:07:04;;;;;;;7.63;4.97;;;14.70;99.90;;;;;;5094357;28;20686;-57
2022/10/28 05:09:32;;;;;;;11.77;6.37;;;14.70;99.90;;;;;;5094133;28;20230;-56
2022/10/28 05:12:01;;;;;;;10.57;5.87;;;14.70;99.90;;;;;;5093986;28;20283;-56
2022/10/28 05:14:29;;;;;;;9.17;5.27;;;14.60;99.90;;;;;;5093478;28;20234;-56
2022/10/28 05:16:57;;;;;;;8.17;4.73;;;14.70;99.90;;;;;;5105301;28;20229;-57
2022/10/28 05:19:26;;;;;;;5.83;4.90;;;14.60;99.90;;;;;;5107708;28;20692;-56
2022/10/28 05:21:54;;;;;;;6.63;4.60;;;14.60;99.90;;;;;;5114256;28;20238;-56
2022/10/28 05:24:22;;;;;;;8.23;5.20;;;14.60;99.90;;;;;;5114165;28;20286;-56
2022/10/28 05:26:50;;;;;;;8.53;6.00;;;14.50;99.90;;;;;;5113878;28;20218;-57
2022/10/28 05:29:19;;;;;;;12.07;6.50;;;14.40;99.90;;;;;;5093964;28;20231;-57
2022/10/28 05:31:47;;;;;;;9.97;6.57;;;14.40;99.90;;;;;;5092764;28;20288;-56
2022/10/28 05:34:15;;;;;;;7.27;6.20;;;14.40;99.90;;;;;;5093967;28;20237;-56
2022/10/28 05:36:44;;;;;;;9.00;5.37;;;14.40;99.90;;;;;;5093000;28;20273;-57
2022/10/28 05:39:12;;;;;;;11.30;6.13;;;14.40;99.90;;;;;;5093650;28;20611;-56
2022/10/28 05:41:40;;;;;;;9.13;5.67;;;14.30;99.90;;;;;;5093428;28;20268;-57
2022/10/28 05:44:08;;;;;;;10.93;5.77;;;14.30;99.90;;;;;;5093444;28;20222;-57
2022/10/28 05:46:36;;;;;;;8.17;5.60;;;14.20;99.90;;;;;;5103599;28;20225;-57
2022/10/28 05:49:04;;;;;;;8.00;5.50;;;14.20;99.90;;;;;;5104852;28;20259;-56
2022/10/28 05:51:33;;;;;;;11.63;5.90;;;14.30;99.90;;;;;;5113471;28;20229;-56
2022/10/28 05:54:02;;;;;;;9.17;6.37;;;14.30;99.90;;;;;;5113719;28;20229;-56
2022/10/28 05:56:30;;;;;;;11.20;5.77;;;14.20;99.90;;;;;;5113521;28;20745;-56
2022/10/28 05:58:58;;;;;;;7.03;5.40;;;14.30;99.90;;;;;;5095903;28;20647;-57
2022/10/28 06:01:26;;;;;;;9.27;5.53;;;14.30;99.90;;;;;;5092166;28;20597;-55
2022/10/28 06:03:54;;;;;;;7.73;5.10;;;14.20;99.90;;;;;;5093103;28;20598;-57
2022/10/28 06:06:22;;;;;;;8.20;5.03;;;14.20;99.90;;;;;;5093095;28;20750;-57
2022/10/28 06:08:50;;;;;;;7.17;4.97;;;14.20;99.90;;;;;;5093029;28;20239;-56
2022/10/28 06:11:20;;;;;;;8.23;5.90;;;14.20;99.90;;;;;;5092778;28;20238;-57
2022/10/28 06:13:48;;;;;;;8.33;5.67;;;14.20;99.90;;;;;;5092892;28;20240;-57
2022/10/28 06:16:16;;;;;;;7.47;5.50;;;14.10;99.90;;;;;;5100550;28;20236;-57
2022/10/28 06:18:44;;;;;;;9.30;5.60;;;14.10;99.90;;;;;;5104619;28;20639;-57
2022/10/28 06:21:12;;;;;;;12.67;5.27;;;14.10;99.90;;;;;;5113244;28;20244;-57
2022/10/28 06:23:40;;;;;;;8.53;5.90;;;14.20;99.90;;;;;;5112883;28;20225;-57
2022/10/28 06:26:09;;;;;;;8.77;5.57;;;14.20;99.90;;;;;;5113675;28;20224;-57
2022/10/28 06:28:39;;;;;;;8.40;5.43;;;14.20;99.90;;;;;;5103054;28;20632;-57
2022/10/28 06:31:08;;;;;;;7.23;5.93;;;14.20;99.90;;;;;;5096436;28;20230;-56
2022/10/28 06:33:36;;;;;;;10.33;5.20;;;14.20;99.90;;;;;;5078529;28;20602;-57
2022/10/28 06:36:05;;;;;;;8.60;5.50;;;14.20;99.90;;;;;;5096750;28;20227;-57
2022/10/28 06:38:33;;;;;;;10.47;5.50;;;14.20;99.90;;;;;;5096757;28;20226;-57
2022/10/28 06:41:01;;;;;;;8.30;5.80;;;14.20;99.90;;;;;;5096579;28;20222;-57
2022/10/28 06:43:29;;;;;;;9.87;5.90;;;14.30;99.90;;;;;;5096574;28;20225;-56
2022/10/28 06:46:01;;;;;;;10.60;5.77;;;14.30;99.90;;;;;;5101725;28;20237;-57
2022/10/28 06:48:29;;;;;;;9.30;5.27;;;14.30;99.90;;;;;;5108074;28;20230;-57
2022/10/28 06:50:58;;;;;;;9.77;5.83;;;14.30;99.90;;;;;;5079275;28;20361;-57
2022/10/28 06:53:26;;;;;;;8.90;5.83;;;14.30;99.90;;;;;;5075900;28;20231;-55
2022/10/28 06:55:54;;;;;;;8.97;5.60;;;14.30;99.90;;;;;;5091512;28;20691;-57
2022/10/28 06:58:23;;;;;;;8.87;4.80;;;14.40;99.90;;;;;;5117021;28;20267;-56
2022/10/28 07:00:51;;;;;;;11.13;5.97;;;14.40;99.90;;;;;;5116379;28;20244;-57
2022/10/28 07:03:20;;;;;;;14.13;6.67;;;14.40;99.90;;;;;;5116932;28;20592;-56
2022/10/28 07:05:50;;;;;;;11.53;6.83;;;14.50;99.90;;;;;;5116736;28;20225;-57
2022/10/28 07:08:18;;;;;;;8.77;5.43;;;14.50;99.90;;;;;;5116782;28;20218;-57
2022/10/28 07:10:54;;;;;;;9.40;5.80;;;14.50;99.90;;;;;;5116740;28;20286;-57
2022/10/28 07:13:22;;;;;;;7.67;5.87;;;14.60;99.90;;;;;;5116709;28;20225;-56
2022/10/28 07:15:54;;;;;;;10.47;5.50;;;14.70;99.90;;;;;;5116057;28;20287;-57
2022/10/28 07:18:25;;;;;;;9.67;5.63;;;14.80;99.90;;;;;;5107958;28;20221;-55
2022/10/28 07:20:53;;;;;;;10.20;5.47;;;14.80;99.90;;;;;;5116448;28;20236;-57
2022/10/28 07:23:21;;;;;;;8.73;5.67;;;14.90;99.90;;;;;;5116277;28;20225;-56
2022/10/28 07:25:53;;;;;;;9.60;5.30;;;15.00;99.90;;;;;;5116148;28;20234;-56
2022/10/28 07:28:23;;;;;;;10.03;6.17;;;15.10;99.90;;;;;;5116195;28;20225;-56
2022/10/28 07:30:51;;;;;;;9.90;6.30;;;15.10;99.90;;;;;;5115822;28;20595;-56
2022/10/28 07:33:19;;;;;;;9.97;5.73;;;15.20;99.90;;;;;;5116035;28;20233;-57
2022/10/28 07:35:49;;;;;;;8.60;5.00;;;15.30;99.90;;;;;;5116104;28;20225;-57
2022/10/28 07:38:17;;;;;;;8.37;5.40;;;15.40;99.90;;;;;;5095237;28;20234;-56
2022/10/28 07:40:45;;;;;;;8.30;5.27;;;15.50;99.90;;;;;;5095384;28;21209;-56
2022/10/28 07:43:13;;;;;;;8.03;5.07;;;15.60;99.90;;;;;;5095736;28;20248;-56
2022/10/28 07:45:41;;;;;;;10.87;5.37;;;15.70;99.90;;;;;;5092330;28;20234;-57
2022/10/28 07:48:09;;;;;;;11.23;5.70;;;15.80;99.90;;;;;;5083660;28;20215;-57
2022/10/28 07:50:39;;;;;;;8.73;5.60;;;15.80;99.90;;;;;;5076684;28;20683;-56
2022/10/28 07:53:08;;;;;;;7.67;5.17;;;15.90;99.90;;;;;;5075325;28;20253;-56
2022/10/28 07:55:36;;;;;;;9.03;5.40;;;16.00;99.90;;;;;;5075107;28;20311;-57
2022/10/28 07:58:04;;;;;;;15.10;5.93;;;16.00;99.90;;;;;;5075252;28;20235;-57
2022/10/28 08:00:32;;;;;;;9.10;5.17;;;16.10;99.90;;;;;;5074144;28;20239;-56
2022/10/28 08:03:02;;;;;;;10.23;5.40;;;16.20;99.90;;;;;;5075117;28;20219;-56
2022/10/28 08:05:30;;;;;;;9.03;5.33;;;16.40;99.90;;;;;;5074893;28;20698;-57
2022/10/28 08:07:58;;;;;;;9.37;5.60;;;16.50;99.90;;;;;;5075069;28;20637;-56
2022/10/28 08:10:28;;;;;;;9.87;5.30;;;16.50;99.90;;;;;;5074681;28;20219;-56
2022/10/28 08:12:57;;;;;;;16.37;5.47;;;16.50;99.90;;;;;;5074633;28;20238;-57
2022/10/28 08:15:25;;;;;;;9.63;5.57;;;16.60;99.90;;;;;;5074775;28;20705;-55
2022/10/28 08:17:53;;;;;;;8.60;5.30;;;16.70;99.90;;;;;;5083986;28;20227;-57
2022/10/28 08:20:22;;;;;;;9.63;5.10;;;16.90;99.90;;;;;;5094967;28;20219;-56
2022/10/28 08:22:50;;;;;;;8.10;4.73;;;17.10;99.90;;;;;;5094891;28;20220;-56
2022/10/28 08:25:18;;;;;;;9.83;5.03;;;17.20;99.90;;;;;;5095096;28;20309;-57
2022/10/28 08:27:47;;;;;;;7.37;4.60;;;17.40;99.90;;;;;;5094697;28;20699;-57
2022/10/28 08:30:16;;;;;;;9.87;5.17;;;17.50;99.90;;;;;;5094088;28;20238;-57
2022/10/28 08:32:44;;;;;;;12.03;4.93;;;17.50;99.90;;;;;;5094330;28;20226;-57
2022/10/28 08:35:12;;;;;;;8.03;4.63;;;17.60;99.90;;;;;;5094785;28;20567;-55
2022/10/28 08:37:40;;;;;;;10.57;5.00;;;17.60;99.90;;;;;;5109913;28;20291;-57
2022/10/28 08:40:11;;;;;;;8.67;4.80;;;17.80;99.90;;;;;;5115031;28;20225;-56
2022/10/28 08:42:46;;;;;;;7.73;4.33;;;18.00;99.90;;;;;;5114446;28;20240;-57
2022/10/28 08:45:31;;;;;;;10.13;4.80;;;18.10;99.90;;;;;;5114885;28;20623;-57
2022/10/28 08:48:09;;;;;;;9.70;4.30;;;18.30;99.90;;;;;;5101144;28;20703;-56
2022/10/28 08:50:45;;;;;;;7.43;4.20;;;18.40;99.90;;;;;;5075371;28;20227;-56
2022/10/28 08:53:17;;;;;;;9.07;4.60;;;18.40;99.90;;;;;;5074157;28;20273;-57
2022/10/28 08:55:48;;;;;;;5.53;3.90;;;18.60;99.90;;;;;;5073626;28;20679;-57
2022/10/28 08:58:26;;;;;;;8.10;4.30;;;18.70;99.90;;;;;;5088535;28;20695;-57
2022/10/28 09:00:58;;;;;;;8.83;4.10;;;18.80;99.90;;;;;;5113881;28;20241;-57
2022/10/28 09:03:29;;;;;;;8.37;4.23;;;18.90;99.90;;;;;;5114347;28;20325;-56
2022/10/28 09:06:04;;;;;;;12.07;4.30;;;19.10;99.90;;;;;;5114227;28;20323;-56
2022/10/28 09:08:35;;;;;;;9.70;4.00;;;19.20;99.90;;;;;;5114543;28;20235;-57
2022/10/28 09:11:27;;;;;;;9.77;3.90;;;19.40;99.90;;;;;;5114380;28;20238;-57
2022/10/28 09:14:10;;;;;;;9.27;3.50;;;19.50;99.90;;;;;;5114080;28;20222;-57
2022/10/28 09:16:46;;;;;;;7.57;3.77;;;19.70;99.90;;;;;;5113676;28;20233;-57
2022/10/28 09:19:24;;;;;;;10.47;4.17;;;19.70;99.90;;;;;;5086201;28;20228;-57
2022/10/28 09:22:02;;;;;;;11.40;4.23;;;19.60;99.90;;;;;;5093722;28;20262;-57
2022/10/28 09:24:43;;;;;;;10.60;4.40;;;19.70;99.90;;;;;;5093609;28;20256;-57
2022/10/28 09:27:19;;;;;;;8.97;3.70;;;19.90;99.90;;;;;;5093484;28;20692;-56
2022/10/28 09:29:54;;;;;;;8.63;3.80;;;20.10;99.90;;;;;;5093534;28;20583;-57
2022/10/28 09:32:30;;;;;;;8.13;3.73;;;20.10;99.90;;;;;;5092966;28;20243;-57
2022/10/28 09:35:05;;;;;;;8.37;3.67;;;20.10;99.90;;;;;;5093806;28;20239;-57
2022/10/28 09:37:38;;;;;;;12.53;3.87;;;20.20;99.90;;;;;;5093077;28;20283;-57
2022/10/28 09:40:16;;;;;;;7.43;3.80;;;20.40;99.90;;;;;;5093474;28;20232;-57
2022/10/28 09:42:54;;;;;;;8.40;3.60;;;20.50;99.90;;;;;;5093027;28;20229;-57
2022/10/28 09:45:27;;;;;;;11.00;4.17;;;20.60;99.90;;;;;;5093860;28;20620;-57
2022/10/28 09:48:00;;;;;;;9.60;3.70;;;20.70;99.90;;;;;;5104738;28;20226;-57
2022/10/28 09:50:30;;;;;;;9.17;3.50;;;21.00;99.90;;;;;;5113792;28;20228;-57
2022/10/28 09:53:04;;;;;;;9.17;3.30;;;21.20;99.90;;;;;;5113466;28;20223;-57
2022/10/28 09:55:32;;;;;;;10.90;4.30;;;21.20;99.90;;;;;;5113197;28;20225;-57
2022/10/28 09:58:03;;;;;;;9.20;3.83;;;21.30;99.90;;;;;;5113610;28;20309;-57
2022/10/28 10:00:32;;;;;;;7.70;3.20;;;21.30;99.90;;;;;;5112944;28;20241;-57
2022/10/28 10:03:01;;;;;;;8.03;3.80;;;21.30;99.90;;;;;;5113484;28;20233;-57
2022/10/28 10:05:33;;;;;;;10.37;3.63;;;21.40;99.90;;;;;;5113371;28;20258;-57
2022/10/28 10:08:05;;;;;;;8.97;3.90;;;21.40;99.90;;;;;;5113181;28;20224;-57
2022/10/28 10:10:42;;;;;;;11.10;3.63;;;21.50;99.90;;;;;;5113229;28;20224;-57
2022/10/28 10:13:14;;;;;;;9.07;3.60;;;21.70;99.90;;;;;;5113508;28;20669;-57
2022/10/28 10:15:45;;;;;;;9.77;4.03;;;21.90;99.90;;;;;;5113223;28;20236;-57
2022/10/28 10:18:18;;;;;;;10.37;4.03;;;21.80;99.90;;;;;;5088966;28;20718;-57
2022/10/28 10:20:51;;;;;;;7.00;3.77;;;21.90;99.90;;;;;;5113280;28;20233;-57
2022/10/28 10:23:26;;;;;;;8.83;3.47;;;21.90;99.90;;;;;;5113310;28;20693;-58
2022/10/28 10:25:57;;;;;;;8.63;3.53;;;21.90;99.90;;;;;;5113024;28;20216;-57
2022/10/28 10:28:28;;;;;;;8.57;3.60;;;22.00;99.90;;;;;;5112820;28;20278;-56
2022/10/28 10:30:57;;;;;;;8.30;3.07;;;22.00;99.90;;;;;;5112658;28;20228;-57
2022/10/28 10:33:31;;;;;;;9.63;3.40;;;22.10;99.90;;;;;;5113050;28;20226;-56
2022/10/28 10:36:02;;;;;;;12.20;3.80;;;22.10;99.90;;;;;;5113028;28;20230;-57
2022/10/28 10:38:31;;;;;;;6.60;3.60;;;22.20;99.90;;;;;;5112769;28;20240;-57
2022/10/28 10:40:59;;;;;;;10.27;3.40;;;22.30;99.90;;;;;;5113193;28;20699;-57
2022/10/28 10:43:32;;;;;;;11.77;3.90;;;22.50;99.90;;;;;;5090698;28;20234;-57
2022/10/28 10:46:02;;;;;;;11.93;3.93;;;22.50;99.90;;;;;;5077866;28;20237;-57
2022/10/28 10:48:35;;;;;;;9.57;4.00;;;22.60;99.90;;;;;;5100816;28;20222;-57
2022/10/28 10:51:08;;;;;;;7.80;4.10;;;22.40;99.90;;;;;;5092461;28;20217;-57
2022/10/28 10:53:37;;;;;;;15.00;3.63;;;22.50;99.90;;;;;;5092388;28;20269;-57
2022/10/28 10:56:09;;;;;;;6.83;3.77;;;22.70;99.90;;;;;;5092709;28;20584;-56
2022/10/28 10:58:40;;;;;;;10.67;3.93;;;22.70;99.90;;;;;;5098750;28;20226;-57
2022/10/28 11:01:09;;;;;;;10.43;3.83;;;23.00;99.90;;;;;;5112456;28;20566;-57
2022/10/28 11:03:48;;;;;;;10.43;3.57;;;23.10;99.90;;;;;;5112653;28;20238;-56
2022/10/28 11:06:21;;;;;;;9.00;3.40;;;23.10;99.90;;;;;;5112581;28;20320;-57
2022/10/28 11:08:57;;;;;;;10.90;3.77;;;23.20;99.90;;;;;;5112632;28;20233;-58
2022/10/28 11:11:33;;;;;;;8.97;3.60;;;23.30;99.90;;;;;;5112492;28;20218;-56
2022/10/28 11:14:07;;;;;;;12.63;3.83;;;23.40;99.90;;;;;;5116226;28;20672;-58
2022/10/28 11:16:48;;;;;;;7.50;3.00;;;23.50;99.90;;;;;;5105384;28;20264;-58
2022/10/28 11:19:21;;;;;;;11.00;3.70;;;23.40;99.90;;;;;;5088623;28;20219;-58
2022/10/28 11:22:16;;;;;;;8.47;3.17;;;23.20;99.90;;;;;;5095978;28;20249;-57
2022/10/28 11:25:19;;;;;;;7.93;3.13;;;23.20;99.90;;;;;;5095924;28;20253;-58
2022/10/28 11:27:57;;;;;;;10.57;3.70;;;22.90;99.90;;;;;;5095867;28;20727;-56
2022/10/28 11:30:40;;;;;;;9.57;3.27;;;22.60;99.90;;;;;;5095121;28;20268;-57
2022/10/28 11:33:14;;;;;;;12.57;3.67;;;22.50;99.90;;;;;;5095924;28;20233;-57
2022/10/28 11:36:13;;;;;;;11.37;4.10;;;22.30;99.90;;;;;;5095495;28;20222;-57
2022/10/28 11:39:04;;;;;;;12.83;3.73;;;22.30;99.90;;;;;;5095664;28;20707;-58
2022/10/28 11:41:49;;;;;;;8.70;3.17;;;22.20;99.90;;;;;;5095353;28;20215;-58
2022/10/28 11:44:32;;;;;;;8.00;3.23;;;22.30;99.90;;;;;;5095385;28;20230;-57
2022/10/28 11:47:14;;;;;;;13.00;3.80;;;22.40;99.90;;;;;;5097820;28;20715;-58
2022/10/28 11:50:12;;;;;;;11.53;4.03;;;22.50;99.90;;;;;;5099240;28;20226;-57
2022/10/28 11:53:17;;;;;;;8.73;3.33;;;22.70;99.90;;;;;;5094997;28;20230;-58
2022/10/28 11:55:53;;;;;;;8.70;3.57;;;22.70;99.90;;;;;;5094777;28;20704;-58
2022/10/28 11:58:32;;;;;;;9.00;3.60;;;22.60;99.90;;;;;;5095741;28;20237;-58
2022/10/28 12:01:13;;;;;;;12.70;3.60;;;22.60;99.90;;;;;;5094866;28;20666;-58
2022/10/28 12:04:06;;;;;;;7.07;3.60;;;22.40;99.90;;;;;;5094886;28;20218;-57
2022/10/28 12:06:52;;;;;;;9.27;4.03;;;22.30;99.90;;;;;;5095073;28;20702;-57
2022/10/28 12:09:30;;;;;;;10.47;3.43;;;22.00;99.90;;;;;;5095298;28;20689;-57
2022/10/28 12:12:07;;;;;;;8.37;3.40;;;21.90;99.90;;;;;;5094900;28;20230;-57
2022/10/28 12:14:44;;;;;;;10.60;3.73;;;21.90;99.90;;;;;;5094715;28;20218;-57
2022/10/28 12:17:17;;;;;;;9.30;3.60;;;21.90;99.90;;;;;;5106896;28;20289;-57
2022/10/28 12:19:52;;;;;;;11.60;3.83;;;22.00;99.90;;;;;;5111935;28;20233;-57
2022/10/28 12:22:25;;;;;;;10.27;4.03;;;22.00;99.90;;;;;;5115058;28;20232;-58
2022/10/28 12:24:56;;;;;;;10.67;3.37;;;22.30;99.90;;;;;;5114263;28;20723;-57
2022/10/28 12:27:29;;;;;;;12.40;3.50;;;22.30;99.90;;;;;;5114952;28;20233;-57
2022/10/28 12:30:01;;;;;;;8.87;3.70;;;22.30;99.90;;;;;;5115045;28;20653;-57
2022/10/28 12:32:33;;;;;;;11.27;3.70;;;22.50;99.90;;;;;;5114268;28;20234;-57
2022/10/28 12:35:05;;;;;;;9.33;4.00;;;22.50;99.90;;;;;;5115242;28;20278;-57
2022/10/28 12:37:39;;;;;;;12.07;3.77;;;22.50;99.90;;;;;;5114595;28;20583;-57
2022/10/28 12:40:19;;;;;;;9.17;4.07;;;22.40;99.90;;;;;;5115087;28;20229;-57
2022/10/28 12:42:53;;;;;;;12.33;3.90;;;22.40;99.90;;;;;;5114566;28;20218;-57
2022/10/28 12:45:23;;;;;;;7.97;3.90;;;22.50;99.90;;;;;;5115215;28;20233;-57
2022/10/28 12:47:58;;;;;;;10.93;4.00;;;22.40;99.90;;;;;;5101619;28;20235;-57
2022/10/28 12:50:34;;;;;;;9.57;4.13;;;22.30;99.90;;;;;;5093909;28;20229;-57
2022/10/28 12:53:21;;;;;;;11.50;4.23;;;22.40;99.90;;;;;;5094341;28;20222;-57
2022/10/28 12:55:56;;;;;;;12.87;4.20;;;22.40;99.90;;;;;;5096747;28;20225;-57
2022/10/28 12:58:30;;;;;;;10.07;3.53;;;22.40;99.90;;;;;;5093945;28;20229;-57
2022/10/28 13:01:02;;;;;;;10.10;4.53;;;22.20;99.90;;;;;;5093549;28;20230;-57
2022/10/28 13:03:30;;;;;;;10.40;4.13;;;22.20;99.90;;;;;;5093955;28;20613;-57
2022/10/28 13:06:10;;;;;;;11.27;3.83;;;22.10;99.90;;;;;;5094194;28;20674;-57
2022/10/28 13:09:07;;;;;;;12.90;4.10;;;22.00;99.90;;;;;;5093947;28;20234;-57